Main page
METAR-TAF:

METAR-TAF

Airports :

Macomb Municipal Airport

Macomb, Illinois, United States

latitude: 40-31-13N, longitude: 090-39-09W, elevation: 708 ft

Current weather observation

The report was made 37 minutes ago, at 18:35 UTC
Wind 13 mph from the South/Southwest
Temperature 88°F
Humidity 71%
Pressure 29.96 in. Hg
Visibility: 10 miles
Clear sky

METAR: KMQB 141835Z AUTO 20011KT 10SM CLR 31/25 A2996 RMK AO2 T03090254

Time: 14:12 (19:12 UTC)


TAF: missing

Weather observations and forecasts of more than 4000 airports (METAR and TAF reports).

The available stations are represented by yellow and red dots on the map.

Hover mouse over dot to see the name of the station.

Then click to see weather observations and forecasts.

To change the map : click on the green buttons with a black cross to zoom in, on the green button with a dash to zoom out, or on the green arrows for adjacent maps.


METAR-TAF: